createdAt,value
2017-05-06T00:01:02.408Z,11.23
2017-05-06T00:02:14.334Z,11.26
2017-05-06T00:03:26.876Z,11.25
2017-05-06T00:04:39.131Z,11.16
2017-05-06T00:05:51.676Z,11.12
2017-05-06T00:07:04.235Z,11.1
2017-05-06T00:08:16.467Z,11.04
2017-05-06T00:09:28.988Z,11.02
2017-05-06T00:10:41.526Z,11
2017-05-06T00:11:54.072Z,10.98
2017-05-06T00:13:06.593Z,11
2017-05-06T00:14:18.825Z,10.95
2017-05-06T00:15:31.369Z,10.87
2017-05-06T00:16:43.914Z,10.8
2017-05-06T00:17:56.449Z,10.79
2017-05-06T00:19:08.977Z,10.79
2017-05-06T00:20:21.503Z,10.82
2017-05-06T00:21:34.074Z,10.8
2017-05-06T00:22:46.296Z,10.8
2017-05-06T00:23:58.806Z,10.67
2017-05-06T00:25:11.378Z,10.69
2017-05-06T00:26:23.928Z,10.64
2017-05-06T00:27:36.725Z,10.68
2017-05-06T00:28:49.270Z,10.67
2017-05-06T00:30:01.788Z,10.61
2017-05-06T00:31:14.004Z,10.58
2017-05-06T00:32:26.527Z,10.58
2017-05-06T00:33:38.774Z,10.55
2017-05-06T00:34:51.317Z,10.57
2017-05-06T00:36:03.862Z,10.51
2017-05-06T00:37:16.419Z,10.46
2017-05-06T00:38:28.991Z,10.51
2017-05-06T00:39:41.525Z,10.57
2017-05-06T00:40:54.078Z,10.49
2017-05-06T00:42:06.301Z,10.51
2017-05-06T00:43:18.524Z,10.49
2017-05-06T00:44:30.774Z,10.48
2017-05-06T00:45:43.287Z,10.57
2017-05-06T00:46:55.803Z,10.53
2017-05-06T00:48:07.725Z,10.43
2017-05-06T00:49:20.273Z,10.41
2017-05-06T00:50:32.516Z,10.42
2017-05-06T00:51:44.760Z,10.48
2017-05-06T00:52:57.308Z,10.42
2017-05-06T00:54:09.558Z,10.42
2017-05-06T00:55:22.100Z,10.45
2017-05-06T00:56:34.629Z,10.41
2017-05-06T00:57:46.852Z,10.36
2017-05-06T00:58:59.388Z,10.41
2017-05-06T01:00:11.891Z,10.31
2017-05-06T01:01:24.481Z,10.21
2017-05-06T01:02:37.001Z,10.23
2017-05-06T01:03:49.543Z,10.28
2017-05-06T01:05:02.100Z,10.15
2017-05-06T01:06:14.343Z,10.1
2017-05-06T01:07:26.888Z,10.15
2017-05-06T01:08:39.419Z,10.12
2017-05-06T01:09:51.655Z,10.09
2017-05-06T01:11:04.194Z,10.07
2017-05-06T01:12:16.096Z,10
2017-05-06T01:13:28.593Z,10
2017-05-06T01:14:41.117Z,10
2017-05-06T01:15:53.638Z,9.97
2017-05-06T01:17:05.861Z,9.92
2017-05-06T01:18:18.401Z,9.87
2017-05-06T01:19:30.901Z,9.91
2017-05-06T01:20:43.168Z,9.9
2017-05-06T01:21:55.707Z,9.81
2017-05-06T01:23:08.214Z,9.85
2017-05-06T01:24:20.748Z,9.74
2017-05-06T01:25:33.260Z,9.76
2017-05-06T01:26:45.773Z,9.74
2017-05-06T01:27:57.989Z,9.7
2017-05-06T01:29:10.535Z,9.7
2017-05-06T01:30:22.766Z,9.72
2017-05-06T01:31:35.317Z,9.64
2017-05-06T01:32:47.859Z,9.63
2017-05-06T01:34:00.394Z,9.56
2017-05-06T01:35:12.336Z,9.56
2017-05-06T01:36:24.542Z,9.48
2017-05-06T01:37:37.042Z,9.51
2017-05-06T01:38:49.582Z,9.48
2017-05-06T01:40:02.102Z,9.39
2017-05-06T01:41:13.721Z,9.37
2017-05-06T01:42:26.221Z,9.33
2017-05-06T01:43:38.746Z,9.34
2017-05-06T01:44:51.012Z,9.37
2017-05-06T01:46:03.228Z,9.37
2017-05-06T01:47:15.474Z,9.3
2017-05-06T01:48:28.018Z,9.3
2017-05-06T01:49:40.299Z,9.31
2017-05-06T01:50:52.843Z,9.26
2017-05-06T01:52:05.362Z,9.3
2017-05-06T01:53:17.611Z,9.27
2017-05-06T01:54:29.854Z,9.34
2017-05-06T01:55:42.391Z,9.3
2017-05-06T01:56:54.614Z,9.3
2017-05-06T01:58:07.138Z,9.26
2017-05-06T01:59:19.355Z,9.24
2017-05-06T02:00:32.179Z,9.31
2017-05-06T02:01:44.697Z,9.3
2017-05-06T02:02:56.954Z,9.29
2017-05-06T02:04:09.517Z,9.26
2017-05-06T02:05:22.059Z,9.42
2017-05-06T02:06:34.606Z,9.34
2017-05-06T02:07:46.552Z,9.4
2017-05-06T02:08:59.054Z,9.4
2017-05-06T02:10:10.980Z,9.39
2017-05-06T02:11:22.926Z,9.36
2017-05-06T02:12:35.463Z,9.4
2017-05-06T02:13:47.707Z,9.44
2017-05-06T02:15:00.265Z,9.45
2017-05-06T02:16:12.797Z,9.36
2017-05-06T02:17:24.748Z,9.4
2017-05-06T02:18:37.272Z,9.45
2017-05-06T02:19:49.799Z,9.44
2017-05-06T02:21:02.310Z,9.48
2017-05-06T02:22:14.831Z,9.44
2017-05-06T02:23:27.360Z,9.52
2017-05-06T02:24:39.594Z,9.48
2017-05-06T02:25:52.143Z,9.47
2017-05-06T02:27:04.669Z,9.47
2017-05-06T02:28:16.609Z,9.45
2017-05-06T02:29:29.129Z,9.49
2017-05-06T02:30:41.635Z,9.49
2017-05-06T02:31:54.177Z,9.49
2017-05-06T02:33:06.416Z,9.51
2017-05-06T02:34:18.340Z,9.51
2017-05-06T02:35:30.861Z,9.47
2017-05-06T02:36:43.379Z,9.47
2017-05-06T02:37:55.924Z,9.51
2017-05-06T02:39:08.478Z,9.55
2017-05-06T02:40:20.678Z,9.49
2017-05-06T02:41:32.896Z,9.45
2017-05-06T02:42:45.436Z,9.49
2017-05-06T02:43:57.683Z,9.48
2017-05-06T02:45:09.908Z,9.49
2017-05-06T02:46:22.135Z,9.55
2017-05-06T02:47:34.650Z,9.45
2017-05-06T02:48:47.196Z,9.59
2017-05-06T02:49:59.719Z,9.64
2017-05-06T02:51:12.237Z,9.59
2017-05-06T02:52:24.463Z,9.66
2017-05-06T02:53:37.000Z,9.54
2017-05-06T02:54:49.550Z,9.58
2017-05-06T02:56:02.072Z,9.59
2017-05-06T02:57:14.621Z,9.58
2017-05-06T02:58:27.138Z,9.66
2017-05-06T02:59:39.712Z,9.62
2017-05-06T03:00:52.234Z,9.69
2017-05-06T03:02:04.795Z,9.74
2017-05-06T03:03:17.039Z,9.67
2017-05-06T03:04:29.546Z,9.8
2017-05-06T03:05:42.084Z,9.73
2017-05-06T03:06:54.604Z,9.8
2017-05-06T03:08:07.159Z,9.7
2017-05-06T03:09:19.679Z,9.76
2017-05-06T03:10:31.906Z,9.77
2017-05-06T03:11:44.486Z,9.85
2017-05-06T03:12:57.038Z,9.82
2017-05-06T03:14:09.261Z,9.88
2017-05-06T03:15:21.809Z,9.87
2017-05-06T03:16:34.342Z,9.9
2017-05-06T03:17:46.578Z,9.94
2017-05-06T03:18:59.117Z,9.97
2017-05-06T03:20:11.366Z,10.03
2017-05-06T03:21:23.938Z,9.95
2017-05-06T03:22:36.460Z,10
2017-05-06T03:23:48.999Z,10.02
2017-05-06T03:25:01.268Z,10.1
2017-05-06T03:26:13.794Z,10.1
2017-05-06T03:27:26.317Z,10.1
2017-05-06T03:28:38.530Z,10.09
2017-05-06T03:29:51.059Z,10.12
2017-05-06T03:31:03.302Z,10.13
2017-05-06T03:32:16.118Z,10.17
2017-05-06T03:33:28.669Z,10.15
2017-05-06T03:34:41.186Z,10.07
2017-05-06T03:35:53.407Z,10.21
2017-05-06T03:37:05.652Z,10.2
2017-05-06T03:38:17.280Z,10.09
2017-05-06T03:39:29.795Z,10.1
2017-05-06T03:40:42.325Z,10.27
2017-05-06T03:41:54.884Z,10.24
2017-05-06T03:43:07.428Z,10.3
2017-05-06T03:44:19.660Z,10.27
2017-05-06T03:45:32.196Z,10.25
2017-05-06T03:46:44.723Z,10.25
2017-05-06T03:47:57.266Z,10.25
2017-05-06T03:49:09.819Z,10.28
2017-05-06T03:50:21.762Z,10.27
2017-05-06T03:51:34.008Z,10.33
2017-05-06T03:52:46.546Z,10.25
2017-05-06T03:53:59.093Z,10.38
2017-05-06T03:55:11.620Z,10.36
2017-05-06T03:56:24.170Z,10.3
2017-05-06T03:57:36.732Z,10.36
2017-05-06T03:58:49.261Z,10.34
2017-05-06T04:00:01.807Z,10.49
2017-05-06T04:01:14.042Z,10.36
2017-05-06T04:02:26.295Z,10.46
2017-05-06T04:03:38.509Z,10.46
2017-05-06T04:04:51.288Z,10.48
2017-05-06T04:06:03.525Z,10.48
2017-05-06T04:07:15.735Z,10.51
2017-05-06T04:08:27.971Z,10.55
2017-05-06T04:09:40.200Z,10.57
2017-05-06T04:10:52.759Z,10.62
2017-05-06T04:12:05.292Z,10.67
2017-05-06T04:13:17.260Z,10.65
2017-05-06T04:14:29.208Z,10.64
2017-05-06T04:15:41.747Z,10.72
2017-05-06T04:16:54.292Z,10.82
2017-05-06T04:18:06.826Z,10.77
2017-05-06T04:19:19.064Z,10.82
2017-05-06T04:20:31.591Z,10.82
2017-05-06T04:21:43.807Z,10.8
2017-05-06T04:22:56.326Z,10.95
2017-05-06T04:24:08.568Z,10.94
2017-05-06T04:25:20.835Z,10.95
2017-05-06T04:26:33.389Z,10.98
2017-05-06T04:27:45.934Z,11.01
2017-05-06T04:28:58.476Z,11.07
2017-05-06T04:30:11.003Z,11
2017-05-06T04:31:22.932Z,11.04
2017-05-06T04:32:35.468Z,11.15
2017-05-06T04:33:47.982Z,11.15
2017-05-06T04:35:00.531Z,11.16
2017-05-06T04:36:13.076Z,11.25
2017-05-06T04:37:24.706Z,11.22
2017-05-06T04:38:37.240Z,11.2
2017-05-06T04:39:49.762Z,11.31
2017-05-06T04:41:02.311Z,11.35
2017-05-06T04:42:14.828Z,11.37
2017-05-06T04:43:27.354Z,11.41
2017-05-06T04:44:39.903Z,11.38
2017-05-06T04:45:52.145Z,11.41
2017-05-06T04:47:04.686Z,11.49
2017-05-06T04:48:17.515Z,11.48
2017-05-06T04:49:29.732Z,11.43
2017-05-06T04:50:42.262Z,11.55
2017-05-06T04:51:54.528Z,11.63
2017-05-06T04:53:07.041Z,11.58
2017-05-06T04:54:19.562Z,11.65
2017-05-06T04:55:32.095Z,11.68
2017-05-06T04:56:44.642Z,11.67
2017-05-06T04:57:57.176Z,11.62
2017-05-06T04:59:09.399Z,11.6
2017-05-06T05:00:21.345Z,11.6
2017-05-06T05:01:33.912Z,11.59
2017-05-06T05:02:46.463Z,11.68
2017-05-06T05:03:58.991Z,11.73
2017-05-06T05:05:11.525Z,11.7
2017-05-06T05:06:24.029Z,11.77
2017-05-06T05:07:36.592Z,11.8
2017-05-06T05:08:49.114Z,11.73
2017-05-06T05:10:01.670Z,11.78
2017-05-06T05:11:13.913Z,11.8
2017-05-06T05:12:26.412Z,11.81
2017-05-06T05:13:38.947Z,11.8
2017-05-06T05:14:51.494Z,11.81
2017-05-06T05:16:04.321Z,11.85
2017-05-06T05:17:16.246Z,11.81
2017-05-06T05:18:27.859Z,11.78
2017-05-06T05:19:40.412Z,11.83
2017-05-06T05:20:52.947Z,11.89
2017-05-06T05:22:05.502Z,11.83
2017-05-06T05:23:17.727Z,11.89
2017-05-06T05:24:29.988Z,11.86
2017-05-06T05:25:42.510Z,11.86
2017-05-06T05:26:55.041Z,11.91
2017-05-06T05:28:07.551Z,11.97
2017-05-06T05:29:18.876Z,11.91
2017-05-06T05:30:31.077Z,11.86
2017-05-06T05:31:43.323Z,12
2017-05-06T05:32:55.933Z,12
2017-05-06T05:34:08.485Z,11.95
2017-05-06T05:35:20.698Z,12
2017-05-06T05:36:33.252Z,11.99
2017-05-06T05:37:45.798Z,12.07
2017-05-06T05:38:57.996Z,12.1
2017-05-06T05:40:10.511Z,12.1
2017-05-06T05:41:23.056Z,12.1
2017-05-06T05:42:35.599Z,12.15
2017-05-06T05:43:48.152Z,12.17
2017-05-06T05:45:00.702Z,12.12
2017-05-06T05:46:13.272Z,12.07
2017-05-06T05:47:25.536Z,12.07
2017-05-06T05:48:38.361Z,12.17
2017-05-06T05:49:50.887Z,12.21
2017-05-06T05:51:03.456Z,12.25
2017-05-06T05:52:15.098Z,12.21
2017-05-06T05:53:27.597Z,12.23
2017-05-06T05:54:39.858Z,12.33
2017-05-06T05:55:52.382Z,12.33
2017-05-06T05:57:04.926Z,12.3
2017-05-06T05:58:16.554Z,12.43
2017-05-06T05:59:29.095Z,12.44
2017-05-06T06:00:41.641Z,12.51
2017-05-06T06:01:54.172Z,12.62
2017-05-06T06:03:06.690Z,12.61
2017-05-06T06:04:18.950Z,12.68
2017-05-06T06:05:31.196Z,12.66
2017-05-06T06:06:43.428Z,12.69
2017-05-06T06:07:55.964Z,12.78
2017-05-06T06:09:08.462Z,12.7
2017-05-06T06:10:20.379Z,12.69
2017-05-06T06:11:32.926Z,12.78
2017-05-06T06:12:45.447Z,12.83
2017-05-06T06:13:57.992Z,12.84
2017-05-06T06:15:09.918Z,12.84
2017-05-06T06:16:21.867Z,12.9
2017-05-06T06:17:34.404Z,12.94
2017-05-06T06:18:46.630Z,13.03
2017-05-06T06:19:59.176Z,13.02
2017-05-06T06:21:11.119Z,13.09
2017-05-06T06:22:23.374Z,13.09
2017-05-06T06:23:35.618Z,13.12
2017-05-06T06:24:48.161Z,13.31
2017-05-06T06:26:00.988Z,13.24
2017-05-06T06:27:12.935Z,13.27
2017-05-06T06:28:25.168Z,13.3
2017-05-06T06:29:37.697Z,13.37
2017-05-06T06:30:50.240Z,13.4
2017-05-06T06:32:02.785Z,13.46
2017-05-06T06:33:15.311Z,13.54
2017-05-06T06:34:27.834Z,13.67
2017-05-06T06:35:40.071Z,13.65
2017-05-06T06:36:52.298Z,13.78
2017-05-06T06:38:04.822Z,13.82
2017-05-06T06:39:16.768Z,13.82
2017-05-06T06:40:28.707Z,13.97
2017-05-06T06:41:41.254Z,13.91
2017-05-06T06:42:53.777Z,13.95
2017-05-06T06:44:05.999Z,14.07
2017-05-06T06:45:18.541Z,14.07
2017-05-06T06:46:31.065Z,14.05
2017-05-06T06:47:43.587Z,14.07
2017-05-06T06:48:55.810Z,14.19
2017-05-06T06:50:08.044Z,14.26
2017-05-06T06:51:19.992Z,14.31
2017-05-06T06:52:32.512Z,14.33
2017-05-06T06:53:45.065Z,14.43
2017-05-06T06:54:57.586Z,14.45
2017-05-06T06:56:09.833Z,14.52
2017-05-06T06:57:22.379Z,14.55
2017-05-06T06:58:34.895Z,14.61
2017-05-06T06:59:47.455Z,14.52
2017-05-06T07:00:59.983Z,14.58
2017-05-06T07:02:12.207Z,14.67
2017-05-06T07:03:24.454Z,14.58
2017-05-06T07:04:36.680Z,14.66
2017-05-06T07:05:49.196Z,14.61
2017-05-06T07:07:01.729Z,14.7
2017-05-06T07:08:13.663Z,14.73
2017-05-06T07:09:26.210Z,14.78
2017-05-06T07:10:38.758Z,14.74
2017-05-06T07:11:51.309Z,14.78
2017-05-06T07:13:03.826Z,14.82
2017-05-06T07:14:16.050Z,14.9
2017-05-06T07:15:28.289Z,14.85
2017-05-06T07:16:40.835Z,14.94
2017-05-06T07:17:53.089Z,14.94
2017-05-06T07:19:05.034Z,14.96
2017-05-06T07:20:16.972Z,15
2017-05-06T07:21:29.176Z,14.99
2017-05-06T07:22:41.722Z,15.05
2017-05-06T07:23:54.284Z,15.07
2017-05-06T07:25:06.527Z,15.08
2017-05-06T07:26:19.083Z,15.05
2017-05-06T07:27:31.656Z,15.05
2017-05-06T07:28:44.176Z,14.96
2017-05-06T07:29:56.739Z,15.04
2017-05-06T07:31:09.582Z,15.05
2017-05-06T07:32:22.128Z,15.02
2017-05-06T07:33:34.356Z,15.02
2017-05-06T07:34:46.876Z,14.92
2017-05-06T07:35:59.115Z,14.96
2017-05-06T07:37:11.347Z,14.96
2017-05-06T07:38:23.908Z,14.96
2017-05-06T07:39:36.436Z,14.94
2017-05-06T07:40:48.961Z,15.02
2017-05-06T07:42:01.519Z,14.93
2017-05-06T07:43:13.745Z,14.93
2017-05-06T07:44:25.962Z,14.86
2017-05-06T07:45:38.507Z,14.92
2017-05-06T07:46:51.053Z,14.97
2017-05-06T07:48:03.586Z,14.99
2017-05-06T07:49:15.805Z,15.04
2017-05-06T07:50:28.345Z,15
2017-05-06T07:51:40.916Z,14.99
2017-05-06T07:52:53.166Z,15.05
2017-05-06T07:54:05.691Z,15.05
2017-05-06T07:55:17.035Z,15.02
2017-05-06T07:56:29.539Z,15.05
2017-05-06T07:57:41.804Z,15.12
2017-05-06T07:58:54.345Z,15.11
2017-05-06T08:00:06.891Z,15.18
2017-05-06T08:01:19.120Z,15.25
2017-05-06T08:02:31.661Z,15.29
2017-05-06T08:03:44.225Z,15.48
2017-05-06T08:04:56.746Z,15.66
2017-05-06T08:06:09.277Z,15.7
2017-05-06T08:07:21.808Z,15.78
2017-05-06T08:08:34.362Z,15.88
2017-05-06T08:09:47.134Z,15.99
2017-05-06T08:10:59.676Z,15.99
2017-05-06T08:12:12.203Z,16.06
2017-05-06T08:13:24.464Z,16.08
2017-05-06T08:14:36.668Z,16.24
2017-05-06T08:15:49.233Z,16.39
2017-05-06T08:17:01.464Z,16.34
2017-05-06T08:18:13.708Z,16.43
2017-05-06T08:19:26.252Z,16.49
2017-05-06T08:20:38.768Z,16.55
2017-05-06T08:21:51.375Z,16.59
2017-05-06T08:23:03.614Z,16.69
2017-05-06T08:24:15.852Z,16.86
2017-05-06T08:25:28.410Z,17.01
2017-05-06T08:26:40.679Z,16.99
2017-05-06T08:27:53.251Z,17.27
2017-05-06T08:29:05.822Z,17.41
2017-05-06T08:30:18.062Z,17.47
2017-05-06T08:31:30.639Z,17.56
2017-05-06T08:32:42.873Z,17.56
2017-05-06T08:33:55.403Z,17.66
2017-05-06T08:35:07.919Z,17.8
2017-05-06T08:36:20.162Z,17.84
2017-05-06T08:37:32.708Z,18.02
2017-05-06T08:38:44.940Z,18
2017-05-06T08:39:57.482Z,18
2017-05-06T08:41:10.027Z,18.03
2017-05-06T08:42:22.253Z,18.05
2017-05-06T08:43:34.794Z,17.98
2017-05-06T08:44:47.340Z,18.03
2017-05-06T08:45:59.865Z,18.15
2017-05-06T08:47:12.092Z,18.31
2017-05-06T08:48:23.752Z,18.41
2017-05-06T08:49:35.973Z,18.3
2017-05-06T08:50:48.511Z,18.23
2017-05-06T08:52:01.061Z,18.36
2017-05-06T08:53:13.592Z,18.46
2017-05-06T08:54:26.124Z,18.63
2017-05-06T08:55:38.662Z,18.66
2017-05-06T08:56:51.216Z,18.67
2017-05-06T08:58:04.000Z,18.7
2017-05-06T08:59:15.945Z,18.82
2017-05-06T09:00:28.490Z,18.85
2017-05-06T09:01:40.753Z,18.81
2017-05-06T09:02:53.272Z,18.82
2017-05-06T09:04:05.827Z,18.85
2017-05-06T09:05:18.077Z,18.86
2017-05-06T09:06:30.621Z,18.94
2017-05-06T09:07:42.858Z,19.01
2017-05-06T09:08:55.383Z,19.09
2017-05-06T09:10:07.953Z,19.19
2017-05-06T09:11:20.192Z,19.12
2017-05-06T09:12:32.738Z,19.2
2017-05-06T09:13:44.988Z,19.26
2017-05-06T09:14:57.530Z,19.38
2017-05-06T09:16:09.790Z,19.3
2017-05-06T09:17:22.346Z,19.53
2017-05-06T09:18:34.875Z,19.6
2017-05-06T09:19:47.439Z,19.66
2017-05-06T09:20:59.984Z,19.81
2017-05-06T09:22:11.938Z,19.81
2017-05-06T09:23:24.487Z,19.7
2017-05-06T09:24:37.024Z,19.75
2017-05-06T09:25:49.269Z,19.9
2017-05-06T09:27:01.472Z,19.82
2017-05-06T09:28:13.998Z,19.89
2017-05-06T09:29:26.216Z,20.04
2017-05-06T09:30:38.781Z,20
2017-05-06T09:31:51.012Z,20.07
2017-05-06T09:33:03.597Z,20.08
2017-05-06T09:34:15.840Z,20.15
2017-05-06T09:35:28.396Z,20.12
2017-05-06T09:36:40.931Z,20.12
2017-05-06T09:37:53.476Z,20.22
2017-05-06T09:39:06.030Z,20.21
2017-05-06T09:40:18.598Z,20.34
2017-05-06T09:41:31.440Z,20.24
2017-05-06T09:42:43.677Z,20.12
2017-05-06T09:43:56.214Z,20.17
2017-05-06T09:45:08.755Z,20.15
2017-05-06T09:46:20.982Z,20.07
2017-05-06T09:47:33.231Z,19.89
2017-05-06T09:48:45.448Z,19.87
2017-05-06T09:49:58.023Z,19.7
2017-05-06T09:51:10.551Z,19.7
2017-05-06T09:52:23.110Z,19.62
2017-05-06T09:53:35.327Z,19.42
2017-05-06T09:54:47.860Z,19.35
2017-05-06T09:56:00.420Z,19.38
2017-05-06T09:57:12.964Z,19.38
2017-05-06T09:58:24.940Z,19.3
2017-05-06T09:59:37.483Z,19.35
2017-05-06T10:00:50.024Z,19.24
2017-05-06T10:02:02.603Z,19.27
2017-05-06T10:03:14.845Z,19.17
2017-05-06T10:04:27.391Z,19.08
2017-05-06T10:05:39.935Z,19.07
2017-05-06T10:06:52.489Z,18.92
2017-05-06T10:08:05.057Z,18.85
2017-05-06T10:09:17.274Z,18.7
2017-05-06T10:10:29.802Z,18.61
2017-05-06T10:11:41.766Z,18.64
2017-05-06T10:12:53.992Z,18.6
2017-05-06T10:14:06.507Z,18.53
2017-05-06T10:15:19.079Z,18.39
2017-05-06T10:16:31.621Z,18.26
2017-05-06T10:17:43.550Z,18.28
2017-05-06T10:18:56.074Z,18.09
2017-05-06T10:20:08.008Z,18.08
2017-05-06T10:21:20.230Z,18.03
2017-05-06T10:22:32.456Z,18.03
2017-05-06T10:23:44.984Z,18.02
2017-05-06T10:24:57.821Z,17.95
2017-05-06T10:26:09.766Z,17.9
2017-05-06T10:27:22.013Z,17.91
2017-05-06T10:28:34.559Z,17.87
2017-05-06T10:29:47.108Z,17.91
2017-05-06T10:30:59.359Z,17.93
2017-05-06T10:32:11.603Z,17.98
2017-05-06T10:33:23.847Z,17.9
2017-05-06T10:34:36.397Z,18.05
2017-05-06T10:35:48.956Z,18.21
2017-05-06T10:37:01.226Z,18.28
2017-05-06T10:38:13.473Z,18.34
2017-05-06T10:39:25.976Z,18.48
2017-05-06T10:40:38.517Z,18.53
2017-05-06T10:41:50.468Z,18.76
2017-05-06T10:43:02.706Z,18.83
2017-05-06T10:44:15.264Z,19.09
2017-05-06T10:45:27.798Z,19.2
2017-05-06T10:46:40.344Z,19.52
2017-05-06T10:47:52.903Z,19.55
2017-05-06T10:49:05.170Z,19.75
2017-05-06T10:50:17.386Z,19.82
2017-05-06T10:51:29.931Z,19.93
2017-05-06T10:52:42.499Z,20.02
2017-05-06T10:53:54.745Z,20.26
2017-05-06T10:55:07.303Z,20.32
2017-05-06T10:56:19.873Z,20.39
2017-05-06T10:57:32.418Z,20.44
2017-05-06T10:58:44.679Z,20.46
2017-05-06T10:59:57.236Z,20.68
2017-05-06T11:01:09.770Z,20.78
2017-05-06T11:02:22.020Z,20.75
2017-05-06T11:03:34.590Z,20.75
2017-05-06T11:04:47.133Z,20.71
2017-05-06T11:05:59.653Z,20.78
2017-05-06T11:07:11.579Z,20.83
2017-05-06T11:08:24.132Z,20.86
2017-05-06T11:09:36.699Z,20.9
2017-05-06T11:10:48.921Z,20.85
2017-05-06T11:12:01.462Z,20.8
2017-05-06T11:13:13.714Z,20.6
2017-05-06T11:14:26.263Z,20.55
2017-05-06T11:15:38.830Z,20.46
2017-05-06T11:16:51.054Z,20.36
2017-05-06T11:18:03.596Z,20.27
2017-05-06T11:19:16.134Z,20.1
2017-05-06T11:20:28.679Z,19.82
2017-05-06T11:21:41.213Z,19.77
2017-05-06T11:22:53.474Z,19.67
2017-05-06T11:24:06.025Z,19.6
2017-05-06T11:25:18.592Z,19.47
2017-05-06T11:26:31.137Z,19.47
2017-05-06T11:27:43.389Z,19.44
2017-05-06T11:28:55.633Z,19.34
2017-05-06T11:30:08.158Z,19.22
2017-05-06T11:31:19.804Z,19.09
2017-05-06T11:32:32.364Z,19.05
2017-05-06T11:33:44.909Z,19.08
2017-05-06T11:34:57.160Z,18.96
2017-05-06T11:36:09.713Z,18.86
2017-05-06T11:37:22.248Z,18.81
2017-05-06T11:38:34.526Z,18.66
2017-05-06T11:39:47.069Z,18.64
2017-05-06T11:40:59.918Z,18.52
2017-05-06T11:42:11.841Z,18.41
2017-05-06T11:43:24.362Z,18.36
2017-05-06T11:44:36.581Z,18.3
2017-05-06T11:45:49.102Z,18.03
2017-05-06T11:47:01.668Z,18
2017-05-06T11:48:14.218Z,17.88
2017-05-06T11:49:26.439Z,17.76
2017-05-06T11:50:38.964Z,17.65
2017-05-06T11:51:51.506Z,17.52
2017-05-06T11:53:04.077Z,17.54
2017-05-06T11:54:16.607Z,17.6
2017-05-06T11:55:29.175Z,17.39
2017-05-06T11:56:41.399Z,17.39
2017-05-06T11:57:53.936Z,17.3
2017-05-06T11:59:06.477Z,17.2
2017-05-06T12:00:18.720Z,17.27
2017-05-06T12:01:30.966Z,17.23
2017-05-06T12:02:43.172Z,17.39
2017-05-06T12:03:55.370Z,17.47
2017-05-06T12:05:07.629Z,17.65
2017-05-06T12:06:19.850Z,17.86
2017-05-06T12:07:32.099Z,18.03
2017-05-06T12:08:44.628Z,18.31
2017-05-06T12:09:57.165Z,18.43
2017-05-06T12:11:09.393Z,18.78
2017-05-06T12:12:21.918Z,18.85
2017-05-06T12:13:34.462Z,18.98
2017-05-06T12:14:46.382Z,19.15
2017-05-06T12:15:58.620Z,19.35
2017-05-06T12:17:10.548Z,19.45
2017-05-06T12:18:23.067Z,19.63
2017-05-06T12:19:35.630Z,19.67
2017-05-06T12:20:48.201Z,19.82
2017-05-06T12:22:00.432Z,19.93
2017-05-06T12:23:13.003Z,20.04
2017-05-06T12:24:24.966Z,20.07
2017-05-06T12:25:37.210Z,20.18
2017-05-06T12:26:49.755Z,20.17
2017-05-06T12:28:02.307Z,20.26
2017-05-06T12:29:14.247Z,20.39
2017-05-06T12:30:26.830Z,20.37
2017-05-06T12:31:39.392Z,20.5
2017-05-06T12:32:51.938Z,20.42
2017-05-06T12:34:04.492Z,20.44
2017-05-06T12:35:16.434Z,20.44
2017-05-06T12:36:28.976Z,20.48
2017-05-06T12:37:41.522Z,20.46
2017-05-06T12:38:53.768Z,20.4
2017-05-06T12:40:05.693Z,20.44
2017-05-06T12:41:17.634Z,20.58
2017-05-06T12:42:30.188Z,20.66
2017-05-06T12:43:42.732Z,20.7
2017-05-06T12:44:55.294Z,20.8
2017-05-06T12:46:07.851Z,20.98
2017-05-06T12:47:20.111Z,20.83
2017-05-06T12:48:32.368Z,20.9
2017-05-06T12:49:44.939Z,20.98
2017-05-06T12:50:57.203Z,20.96
2017-05-06T12:52:09.722Z,21.04
2017-05-06T12:53:21.668Z,20.96
2017-05-06T12:54:34.210Z,20.78
2017-05-06T12:55:46.757Z,20.96
2017-05-06T12:56:59.310Z,20.96
2017-05-06T12:58:11.535Z,21.03
2017-05-06T12:59:23.794Z,21.01
2017-05-06T13:00:36.324Z,20.93
2017-05-06T13:01:48.887Z,21.05
2017-05-06T13:03:01.418Z,21.07
2017-05-06T13:04:13.657Z,21.05
2017-05-06T13:05:26.227Z,21.04
2017-05-06T13:06:38.769Z,21.14
2017-05-06T13:07:51.041Z,21.17
2017-05-06T13:09:03.587Z,21.15
2017-05-06T13:10:16.158Z,21.13
2017-05-06T13:11:28.717Z,21.13
2017-05-06T13:12:41.258Z,20.92
2017-05-06T13:13:53.795Z,21.04
2017-05-06T13:15:06.317Z,20.86
2017-05-06T13:16:18.548Z,20.78
2017-05-06T13:17:31.116Z,20.85
2017-05-06T13:18:43.340Z,20.82
2017-05-06T13:19:55.564Z,20.83
2017-05-06T13:21:08.111Z,20.82
2017-05-06T13:22:20.347Z,20.88
2017-05-06T13:23:32.891Z,20.92
2017-05-06T13:24:45.445Z,20.9
2017-05-06T13:25:57.988Z,20.98
2017-05-06T13:27:10.229Z,21.07
2017-05-06T13:28:22.747Z,21.08
2017-05-06T13:29:34.996Z,20.92
2017-05-06T13:30:47.567Z,20.9
2017-05-06T13:32:00.096Z,20.82
2017-05-06T13:33:12.667Z,20.93
2017-05-06T13:34:25.204Z,20.85
2017-05-06T13:35:37.755Z,20.9
2017-05-06T13:36:49.976Z,21.03
2017-05-06T13:38:02.524Z,20.93
2017-05-06T13:39:15.068Z,21.04
2017-05-06T13:40:27.617Z,21.07
2017-05-06T13:41:40.180Z,21.03
2017-05-06T13:42:52.423Z,20.86
2017-05-06T13:44:04.971Z,20.88
2017-05-06T13:45:16.918Z,20.75
2017-05-06T13:46:29.472Z,20.88
2017-05-06T13:47:42.035Z,20.78
2017-05-06T13:48:54.578Z,20.46
2017-05-06T13:50:07.123Z,20.48
2017-05-06T13:51:19.394Z,20.39
2017-05-06T13:52:31.674Z,20.34
2017-05-06T13:53:44.222Z,20.39
2017-05-06T13:54:56.767Z,20.37
2017-05-06T13:56:09.331Z,20.48
2017-05-06T13:57:21.274Z,20.33
2017-05-06T13:58:33.824Z,20.32
2017-05-06T13:59:46.371Z,20.32
2017-05-06T14:00:58.939Z,20.1
2017-05-06T14:02:11.482Z,20.11
2017-05-06T14:03:23.403Z,20.02
2017-05-06T14:04:35.957Z,20.04
2017-05-06T14:05:48.499Z,20.03
2017-05-06T14:07:01.018Z,19.89
2017-05-06T14:08:12.944Z,19.85
2017-05-06T14:09:25.169Z,19.9
2017-05-06T14:10:37.736Z,19.79
2017-05-06T14:11:50.307Z,19.82
2017-05-06T14:13:02.886Z,19.78
2017-05-06T14:14:15.449Z,19.74
2017-05-06T14:15:27.980Z,19.75
2017-05-06T14:16:40.541Z,19.77
2017-05-06T14:17:53.082Z,19.79
2017-05-06T14:19:05.633Z,19.84
2017-05-06T14:20:18.157Z,19.75
2017-05-06T14:21:29.801Z,19.81
2017-05-06T14:22:42.041Z,19.79
2017-05-06T14:23:54.567Z,19.79
2017-05-06T14:25:07.115Z,19.97
2017-05-06T14:26:19.377Z,20
2017-05-06T14:27:31.909Z,20.11
2017-05-06T14:28:44.443Z,20.18
2017-05-06T14:29:57.018Z,20.21
2017-05-06T14:31:09.559Z,20.27
2017-05-06T14:32:21.833Z,20.21
2017-05-06T14:33:34.054Z,20.21
2017-05-06T14:34:46.601Z,20.21
2017-05-06T14:35:59.129Z,20.33
2017-05-06T14:37:11.391Z,20.21
2017-05-06T14:38:23.675Z,20.24
2017-05-06T14:39:36.233Z,20.14
2017-05-06T14:40:48.477Z,20.19
2017-05-06T14:42:00.996Z,20.11
2017-05-06T14:43:12.918Z,20.1
2017-05-06T14:44:24.864Z,19.89
2017-05-06T14:45:37.122Z,19.9
2017-05-06T14:46:49.688Z,19.79
2017-05-06T14:48:02.230Z,19.7
2017-05-06T14:49:14.458Z,19.7
2017-05-06T14:50:27.002Z,19.74
2017-05-06T14:51:39.568Z,19.6
2017-05-06T14:52:52.125Z,19.62
2017-05-06T14:54:04.659Z,19.63
2017-05-06T14:55:16.885Z,19.59
2017-05-06T14:56:29.436Z,19.56
2017-05-06T14:57:41.997Z,19.45
2017-05-06T14:58:54.526Z,19.48
2017-05-06T15:00:07.097Z,19.44
2017-05-06T15:01:19.639Z,19.39
2017-05-06T15:02:32.169Z,19.23
2017-05-06T15:03:44.731Z,19.24
2017-05-06T15:04:57.231Z,19.23
2017-05-06T15:06:09.798Z,19.16
2017-05-06T15:07:22.039Z,19.09
2017-05-06T15:08:34.286Z,19.11
2017-05-06T15:09:46.811Z,19.09
2017-05-06T15:10:59.357Z,19.01
2017-05-06T15:12:11.596Z,18.96
2017-05-06T15:13:23.848Z,18.92
2017-05-06T15:14:36.396Z,18.91
2017-05-06T15:15:48.958Z,18.82
2017-05-06T15:17:01.179Z,18.76
2017-05-06T15:18:13.957Z,18.82
2017-05-06T15:19:26.470Z,18.78
2017-05-06T15:20:38.978Z,18.61
2017-05-06T15:21:51.524Z,18.6
2017-05-06T15:23:04.066Z,18.58
2017-05-06T15:24:16.315Z,18.58
2017-05-06T15:25:28.562Z,18.57
2017-05-06T15:26:41.132Z,18.48
2017-05-06T15:27:53.659Z,18.41
2017-05-06T15:29:06.190Z,18.36
2017-05-06T15:30:18.734Z,18.39
2017-05-06T15:31:30.988Z,18.3
2017-05-06T15:32:43.529Z,18.34
2017-05-06T15:33:56.054Z,18.26
2017-05-06T15:35:07.975Z,18.27
2017-05-06T15:36:20.191Z,18.3
2017-05-06T15:37:32.417Z,18.21
2017-05-06T15:38:44.939Z,18.12
2017-05-06T15:39:57.425Z,18.11
2017-05-06T15:41:09.701Z,18.12
2017-05-06T15:42:22.271Z,18.02